createdAt,value
2019-03-11T00:01:58.270Z,4.00
2019-03-11T00:04:00.349Z,4.20
2019-03-11T00:06:02.826Z,3.33
2019-03-11T00:08:04.785Z,3.67
2019-03-11T00:10:06.553Z,3.07
2019-03-11T00:12:08.284Z,4.00
2019-03-11T00:14:10.058Z,2.67
2019-03-11T00:16:11.730Z,3.83
2019-03-11T00:18:13.417Z,3.67
2019-03-11T00:20:15.088Z,3.97
2019-03-11T00:22:16.784Z,3.97
2019-03-11T00:24:18.454Z,3.33
2019-03-11T00:26:20.133Z,3.23
2019-03-11T00:28:21.820Z,3.17
2019-03-11T00:30:23.498Z,4.00
2019-03-11T00:32:25.179Z,3.10
2019-03-11T00:34:27.471Z,2.70
2019-03-11T00:36:29.156Z,3.23
2019-03-11T00:38:31.090Z,2.67
2019-03-11T00:40:32.869Z,3.30
2019-03-11T00:42:34.558Z,2.60
2019-03-11T00:44:36.229Z,2.60
2019-03-11T00:46:37.906Z,2.53
2019-03-11T00:48:39.585Z,2.17
2019-03-11T00:50:41.256Z,2.30
2019-03-11T00:52:43.026Z,2.93
2019-03-11T00:54:44.912Z,3.60
2019-03-11T00:56:46.591Z,2.30
2019-03-11T00:58:48.524Z,2.70
2019-03-11T01:00:50.322Z,2.90
2019-03-11T01:02:52.092Z,2.37
2019-03-11T01:04:53.770Z,3.07
2019-03-11T01:06:55.437Z,2.93
2019-03-11T01:08:57.130Z,2.60
2019-03-11T01:10:58.804Z,3.10
2019-03-11T01:13:00.486Z,2.23
2019-03-11T01:15:02.377Z,2.77
2019-03-11T01:17:04.044Z,2.40
2019-03-11T01:19:05.728Z,2.30
2019-03-11T01:21:07.403Z,2.77
2019-03-11T01:23:09.072Z,2.47
2019-03-11T01:25:10.776Z,3.33
2019-03-11T01:27:12.772Z,2.83
2019-03-11T01:29:14.462Z,2.03
2019-03-11T01:31:16.139Z,2.63
2019-03-11T01:33:17.904Z,2.90
2019-03-11T01:35:19.576Z,2.67
2019-03-11T01:37:21.251Z,3.37
2019-03-11T01:39:22.928Z,2.90
2019-03-11T01:41:24.615Z,3.40
2019-03-11T01:43:26.300Z,3.17
2019-03-11T01:45:28.240Z,3.90
2019-03-11T01:47:29.918Z,4.00
2019-03-11T01:49:31.861Z,3.50
2019-03-11T01:51:33.525Z,3.17
2019-03-11T01:53:35.213Z,3.40
2019-03-11T01:55:36.885Z,2.43
2019-03-11T01:57:38.563Z,2.93
2019-03-11T01:59:40.533Z,2.73
2019-03-11T02:01:42.206Z,2.40
2019-03-11T02:03:43.904Z,2.50
2019-03-11T02:05:45.857Z,2.73
2019-03-11T02:07:47.525Z,2.77
2019-03-11T02:09:49.209Z,2.97
2019-03-11T02:11:50.880Z,4.77
2019-03-11T02:13:52.564Z,3.20
2019-03-11T02:15:54.476Z,3.17
2019-03-11T02:17:56.152Z,3.17
2019-03-11T02:19:57.831Z,2.50
2019-03-11T02:21:59.493Z,3.30
2019-03-11T02:24:01.472Z,4.70
2019-03-11T02:26:03.136Z,4.20
2019-03-11T02:28:05.073Z,3.97
2019-03-11T02:30:08.825Z,3.87
2019-03-11T02:32:10.499Z,5.50
2019-03-11T02:34:12.182Z,5.77
2019-03-11T02:36:13.856Z,6.80
2019-03-11T02:38:15.537Z,4.40
2019-03-11T02:40:17.306Z,5.90
2019-03-11T02:42:18.984Z,6.67
2019-03-11T02:44:20.658Z,7.27
2019-03-11T02:46:22.331Z,6.93
2019-03-11T02:48:24.105Z,6.53
2019-03-11T02:50:25.887Z,5.50
2019-03-11T02:52:27.866Z,6.97
2019-03-11T02:54:29.546Z,5.43
2019-03-11T02:56:31.227Z,5.23
2019-03-11T02:58:32.898Z,4.83
2019-03-11T03:00:34.581Z,5.67
2019-03-11T03:02:46.474Z,5.60
2019-03-11T03:05:26.360Z,5.40
2019-03-11T03:07:28.031Z,5.30
2019-03-11T03:09:31.980Z,4.27
2019-03-11T03:11:33.285Z,3.50
2019-03-11T03:13:34.962Z,4.90
2019-03-11T03:15:36.654Z,5.63
2019-03-11T03:17:38.327Z,3.50
2019-03-11T03:19:39.994Z,4.43
2019-03-11T03:21:41.679Z,3.43
2019-03-11T03:23:43.337Z,4.20
2019-03-11T03:25:45.027Z,3.40
2019-03-11T03:27:46.721Z,3.90
2019-03-11T03:29:48.471Z,3.17
2019-03-11T03:31:50.166Z,3.10
2019-03-11T03:33:52.046Z,2.70
2019-03-11T03:35:54.042Z,2.90
2019-03-11T03:37:55.789Z,4.00
2019-03-11T03:39:57.454Z,3.37
2019-03-11T03:41:59.415Z,2.93
2019-03-11T03:44:01.373Z,2.20
2019-03-11T03:46:17.411Z,2.17
2019-03-11T03:48:06.925Z,2.70
2019-03-11T03:50:08.754Z,3.00
2019-03-11T03:52:10.451Z,2.27
2019-03-11T03:54:12.112Z,2.30
2019-03-11T03:56:13.798Z,3.20
2019-03-11T03:58:15.462Z,2.50
2019-03-11T04:00:17.256Z,2.70
2019-03-11T04:02:19.026Z,2.50
2019-03-11T04:04:20.983Z,2.13
2019-03-11T04:06:22.862Z,1.87
2019-03-11T04:08:24.537Z,2.23
2019-03-11T04:10:26.265Z,2.27
2019-03-11T04:12:27.962Z,2.00
2019-03-11T04:14:29.634Z,2.30
2019-03-11T04:16:31.301Z,2.03
2019-03-11T04:18:52.633Z,2.07
2019-03-11T04:20:54.628Z,2.10
2019-03-11T04:22:56.356Z,2.23
2019-03-11T04:24:58.029Z,2.67
2019-03-11T04:27:04.030Z,2.80
2019-03-11T04:29:05.705Z,2.30
2019-03-11T04:31:07.390Z,2.37
2019-03-11T04:33:09.061Z,2.33
2019-03-11T04:35:10.729Z,2.80
2019-03-11T04:37:12.697Z,2.40
2019-03-11T04:39:15.167Z,2.80
2019-03-11T04:41:17.131Z,2.03
2019-03-11T04:43:18.800Z,1.90
2019-03-11T04:45:20.735Z,2.60
2019-03-11T04:47:22.417Z,2.30
2019-03-11T04:49:24.089Z,2.87
2019-03-11T04:51:25.771Z,2.40
2019-03-11T04:53:27.745Z,2.20
2019-03-11T04:55:29.426Z,2.60
2019-03-11T04:57:40.620Z,2.70
2019-03-11T04:59:42.633Z,3.20
2019-03-11T05:01:44.616Z,3.17
2019-03-11T05:03:46.456Z,3.63
2019-03-11T05:05:48.449Z,3.70
2019-03-11T05:07:50.137Z,3.60
2019-03-11T05:09:51.809Z,2.13
2019-03-11T05:11:53.497Z,3.23
2019-03-11T05:13:55.165Z,3.13
2019-03-11T05:15:56.845Z,3.27
2019-03-11T05:17:58.535Z,2.80
2019-03-11T05:20:00.431Z,2.95
2019-03-11T05:22:02.116Z,3.30
2019-03-11T05:24:03.792Z,3.03
2019-03-11T05:26:05.453Z,3.07
2019-03-11T05:28:07.130Z,2.63
2019-03-11T05:30:11.332Z,3.80
2019-03-11T05:32:13.012Z,2.80
2019-03-11T05:34:15.023Z,2.87
2019-03-11T05:36:16.700Z,2.90
2019-03-11T05:38:18.385Z,3.30
2019-03-11T05:40:20.098Z,3.23
2019-03-11T05:42:21.786Z,3.37
2019-03-11T05:44:23.462Z,3.33
2019-03-11T05:46:25.133Z,3.50
2019-03-11T05:48:26.820Z,3.97
2019-03-11T05:50:28.745Z,5.00
2019-03-11T05:52:30.701Z,4.57
2019-03-11T05:54:32.383Z,3.97
2019-03-11T05:56:34.056Z,3.60
2019-03-11T05:58:36.041Z,4.47
2019-03-11T06:00:37.718Z,4.20
2019-03-11T06:02:39.420Z,4.70
2019-03-11T06:04:41.089Z,3.97
2019-03-11T06:06:42.761Z,3.50
2019-03-11T06:08:44.452Z,4.20
2019-03-11T06:10:46.117Z,4.10
2019-03-11T06:12:47.810Z,3.70
2019-03-11T06:14:49.489Z,3.80
2019-03-11T06:16:51.432Z,4.43
2019-03-11T06:18:53.129Z,4.70
2019-03-11T06:21:12.942Z,2.83
2019-03-11T06:23:14.729Z,4.97
2019-03-11T06:25:16.402Z,3.23
2019-03-11T06:27:18.080Z,4.77
2019-03-11T06:29:29.954Z,3.30
2019-03-11T06:31:23.332Z,4.20
2019-03-11T06:33:25.346Z,4.20
2019-03-11T06:35:27.021Z,3.40
2019-03-11T06:37:28.693Z,4.10
2019-03-11T06:39:30.386Z,3.77
2019-03-11T06:41:32.073Z,3.40
2019-03-11T06:43:33.817Z,3.77
2019-03-11T06:45:35.860Z,3.80
2019-03-11T06:47:37.529Z,3.43
2019-03-11T06:49:39.204Z,3.63
2019-03-11T06:51:40.880Z,4.30
2019-03-11T06:53:42.571Z,3.67
2019-03-11T06:55:44.237Z,3.37
2019-03-11T06:57:45.909Z,3.93
2019-03-11T06:59:47.595Z,4.40
2019-03-11T07:01:49.269Z,4.47
2019-03-11T07:03:50.945Z,2.53
2019-03-11T07:05:52.622Z,3.40
2019-03-11T07:07:54.304Z,2.53
2019-03-11T07:09:56.337Z,4.33
2019-03-11T07:11:58.013Z,3.63
2019-03-11T07:14:00.013Z,3.70
2019-03-11T07:16:01.681Z,3.50
2019-03-11T07:18:03.356Z,2.87
2019-03-11T07:20:05.792Z,3.80
2019-03-11T07:22:07.478Z,2.90
2019-03-11T07:24:09.250Z,2.60
2019-03-11T07:26:10.921Z,3.00
2019-03-11T07:28:12.594Z,3.17
2019-03-11T07:30:14.556Z,2.73
2019-03-11T07:32:16.517Z,3.50
2019-03-11T07:34:18.202Z,3.00
2019-03-11T07:36:20.234Z,2.97
2019-03-11T07:38:22.190Z,2.87
2019-03-11T07:40:29.670Z,3.40
2019-03-11T07:42:27.470Z,3.60
2019-03-11T07:44:29.157Z,2.77
2019-03-11T07:46:30.829Z,3.23
2019-03-11T07:48:32.501Z,1.97
2019-03-11T07:50:34.177Z,3.03
2019-03-11T07:52:36.106Z,2.90
2019-03-11T07:54:37.781Z,2.70
2019-03-11T07:56:39.444Z,2.83
2019-03-11T07:58:41.109Z,2.70
2019-03-11T08:00:53.201Z,2.50
2019-03-11T08:02:46.364Z,3.30
2019-03-11T08:04:48.117Z,2.63
2019-03-11T08:06:49.856Z,2.80
2019-03-11T08:08:51.605Z,2.60
2019-03-11T08:10:53.293Z,2.83
2019-03-11T08:12:55.280Z,3.30
2019-03-11T08:14:56.968Z,3.23
2019-03-11T08:16:58.644Z,2.80
2019-03-11T08:19:00.304Z,3.27
2019-03-11T08:21:02.300Z,2.80
2019-03-11T08:23:03.975Z,2.47
2019-03-11T08:25:05.685Z,2.83
2019-03-11T08:27:07.365Z,2.43
2019-03-11T08:29:09.316Z,3.17
2019-03-11T08:31:10.984Z,2.77
2019-03-11T08:33:12.662Z,2.60
2019-03-11T08:35:14.374Z,2.97
2019-03-11T08:37:16.055Z,3.63
2019-03-11T08:39:17.729Z,3.17
2019-03-11T08:41:19.426Z,2.67
2019-03-11T08:43:21.111Z,3.33
2019-03-11T08:45:23.081Z,2.30
2019-03-11T08:47:24.743Z,3.03
2019-03-11T08:49:26.413Z,3.20
2019-03-11T08:51:28.102Z,3.20
2019-03-11T08:53:29.773Z,3.20
2019-03-11T08:55:31.457Z,2.63
2019-03-11T08:57:33.113Z,3.07
2019-03-11T08:59:34.784Z,2.43
2019-03-11T09:01:36.469Z,3.10
2019-03-11T09:03:38.137Z,3.10
2019-03-11T09:05:39.824Z,3.27
2019-03-11T09:07:41.824Z,2.90
2019-03-11T09:09:43.502Z,3.90
2019-03-11T09:11:45.193Z,2.50
2019-03-11T09:13:46.865Z,3.43
2019-03-11T09:15:48.846Z,2.93
2019-03-11T09:17:50.505Z,2.90
2019-03-11T09:19:52.171Z,3.53
2019-03-11T09:21:53.849Z,3.33
2019-03-11T09:23:55.528Z,2.90
2019-03-11T09:25:57.217Z,2.70
2019-03-11T09:27:58.913Z,3.70
2019-03-11T09:30:00.590Z,2.60
2019-03-11T09:32:02.279Z,2.80
2019-03-11T09:34:03.954Z,2.20
2019-03-11T09:36:05.633Z,2.40
2019-03-11T09:38:07.298Z,2.20
2019-03-11T09:40:10.320Z,2.53
2019-03-11T09:42:12.025Z,2.77
2019-03-11T09:44:13.692Z,1.90
2019-03-11T09:46:15.393Z,2.13
2019-03-11T09:48:17.053Z,1.63
2019-03-11T09:50:18.732Z,1.70
2019-03-11T09:52:20.413Z,2.07
2019-03-11T09:54:22.088Z,2.40
2019-03-11T09:56:23.774Z,2.27
2019-03-11T09:58:25.451Z,1.90
2019-03-11T10:00:27.146Z,2.47
2019-03-11T10:02:28.829Z,2.00
2019-03-11T10:04:30.582Z,2.30
2019-03-11T10:06:32.274Z,2.40
2019-03-11T10:08:33.940Z,2.80
2019-03-11T10:10:35.610Z,2.43
2019-03-11T10:12:37.300Z,2.30
2019-03-11T10:14:38.970Z,3.00
2019-03-11T10:16:40.943Z,2.43
2019-03-11T10:18:42.623Z,2.10
2019-03-11T10:20:44.297Z,2.53
2019-03-11T10:22:45.977Z,2.80
2019-03-11T10:24:47.650Z,2.47
2019-03-11T10:26:49.330Z,2.70
2019-03-11T10:28:50.996Z,3.10
2019-03-11T10:30:52.669Z,3.73
2019-03-11T10:32:54.359Z,3.73
2019-03-11T10:34:56.034Z,3.20
2019-03-11T10:36:57.713Z,3.40
2019-03-11T10:38:59.377Z,2.73
2019-03-11T10:41:01.062Z,3.77
2019-03-11T10:43:02.746Z,2.77
2019-03-11T10:45:05.102Z,2.77
2019-03-11T10:47:06.773Z,2.73
2019-03-11T10:49:08.709Z,2.53
2019-03-11T10:51:10.380Z,2.93
2019-03-11T10:53:12.056Z,3.10
2019-03-11T10:55:13.770Z,2.63
2019-03-11T10:57:15.442Z,2.67
2019-03-11T10:59:17.114Z,3.10
2019-03-11T11:01:18.791Z,2.87
2019-03-11T11:03:20.474Z,2.60
2019-03-11T11:05:22.141Z,3.40
2019-03-11T11:07:23.813Z,3.40
2019-03-11T11:09:25.499Z,2.80
2019-03-11T11:11:28.001Z,3.20
2019-03-11T11:13:29.965Z,3.23
2019-03-11T11:15:31.693Z,2.73
2019-03-11T11:17:33.373Z,3.50
2019-03-11T11:19:35.058Z,2.57
2019-03-11T11:21:36.980Z,3.30
2019-03-11T11:23:38.665Z,4.10
2019-03-11T11:25:40.328Z,2.93
2019-03-11T11:27:42.006Z,2.73
2019-03-11T11:29:43.693Z,2.53
2019-03-11T11:31:45.365Z,3.33
2019-03-11T11:33:47.081Z,3.10
2019-03-11T11:35:49.053Z,3.80
2019-03-11T11:37:50.765Z,3.03
2019-03-11T11:39:52.442Z,3.57
2019-03-11T11:41:54.413Z,3.17
2019-03-11T11:43:56.098Z,3.47
2019-03-11T11:45:57.775Z,3.20
2019-03-11T11:47:59.474Z,3.10
2019-03-11T11:50:01.141Z,3.30
2019-03-11T11:52:02.815Z,2.87
2019-03-11T11:54:04.496Z,3.17
2019-03-11T11:56:06.168Z,3.00
2019-03-11T11:58:08.158Z,3.10
2019-03-11T12:00:22.272Z,3.03
2019-03-11T12:02:23.936Z,2.70
2019-03-11T12:04:25.625Z,2.77
2019-03-11T12:06:27.841Z,2.97
2019-03-11T12:08:29.523Z,3.13
2019-03-11T12:10:31.568Z,2.93
2019-03-11T12:12:33.520Z,3.23
2019-03-11T12:14:35.233Z,3.47
2019-03-11T12:16:37.014Z,2.50
2019-03-11T12:18:38.747Z,3.43
2019-03-11T12:20:40.579Z,2.97
2019-03-11T12:22:42.925Z,3.07
2019-03-11T12:24:44.889Z,2.83
2019-03-11T12:26:46.560Z,2.33
2019-03-11T12:28:48.234Z,2.40
2019-03-11T12:30:49.909Z,2.40
2019-03-11T12:32:51.580Z,2.47
2019-03-11T12:34:53.464Z,2.80
2019-03-11T12:36:55.216Z,2.57
2019-03-11T12:38:56.992Z,2.20
2019-03-11T12:40:59.005Z,2.53
2019-03-11T12:43:00.681Z,3.10
2019-03-11T12:45:02.917Z,2.27
2019-03-11T12:47:04.589Z,2.40
2019-03-11T12:49:07.351Z,2.53
2019-03-11T12:51:09.043Z,2.43
2019-03-11T12:53:10.732Z,1.97
2019-03-11T12:55:12.425Z,2.57
2019-03-11T12:57:14.118Z,2.50
2019-03-11T12:59:16.136Z,3.13
2019-03-11T13:01:17.792Z,3.27
2019-03-11T13:03:19.510Z,2.53
2019-03-11T13:05:21.185Z,2.20
2019-03-11T13:07:22.852Z,2.43
2019-03-11T13:09:24.530Z,3.30
2019-03-11T13:11:26.188Z,2.73
2019-03-11T13:13:27.869Z,3.30
2019-03-11T13:15:29.857Z,3.17
2019-03-11T13:17:31.774Z,2.97
2019-03-11T13:19:33.457Z,4.20
2019-03-11T13:21:36.664Z,3.37
2019-03-11T13:23:38.604Z,3.83
2019-03-11T13:25:40.287Z,2.97
2019-03-11T13:27:41.966Z,3.00
2019-03-11T13:29:43.691Z,3.70
2019-03-11T13:31:45.370Z,3.50
2019-03-11T13:33:47.050Z,3.30
2019-03-11T13:35:48.733Z,4.00
2019-03-11T13:37:50.405Z,3.40
2019-03-11T13:39:52.084Z,4.10
2019-03-11T13:41:54.035Z,4.33
2019-03-11T13:43:55.696Z,3.30
2019-03-11T13:45:57.385Z,3.30
2019-03-11T13:47:59.108Z,3.90
2019-03-11T13:50:01.610Z,3.33
2019-03-11T13:52:03.821Z,4.07
2019-03-11T13:54:05.537Z,4.33
2019-03-11T13:56:07.242Z,4.07
2019-03-11T13:58:08.925Z,2.80
2019-03-11T14:00:10.833Z,4.20
2019-03-11T14:02:12.527Z,2.63
2019-03-11T14:04:14.201Z,4.07
2019-03-11T14:06:15.881Z,2.80
2019-03-11T14:08:17.869Z,2.93
2019-03-11T14:10:19.670Z,3.87
2019-03-11T14:12:21.347Z,4.40
2019-03-11T14:14:23.026Z,2.87
2019-03-11T14:16:24.716Z,4.00
2019-03-11T14:18:26.380Z,3.40
2019-03-11T14:20:28.055Z,3.87
2019-03-11T14:22:29.742Z,3.70
2019-03-11T14:24:31.422Z,3.40
2019-03-11T14:26:33.097Z,3.80
2019-03-11T14:28:34.764Z,4.47
2019-03-11T14:30:36.432Z,4.20
2019-03-11T14:32:38.131Z,4.80
2019-03-11T14:34:40.098Z,6.00
2019-03-11T14:36:41.784Z,9.77
2019-03-11T14:38:43.468Z,4.73
2019-03-11T14:40:45.162Z,4.87
2019-03-11T14:42:46.840Z,3.20
2019-03-11T14:44:48.512Z,3.03
2019-03-11T14:46:50.193Z,3.70
2019-03-11T14:48:51.882Z,3.70
2019-03-11T14:50:55.033Z,3.10
2019-03-11T14:52:57.109Z,3.93
2019-03-11T14:54:58.778Z,3.17
2019-03-11T14:57:00.447Z,2.10
2019-03-11T14:59:02.477Z,2.43
2019-03-11T15:01:04.149Z,3.10
2019-03-11T15:03:05.862Z,2.80
2019-03-11T15:05:07.937Z,2.70
2019-03-11T15:07:09.634Z,2.80
2019-03-11T15:09:11.310Z,2.47
2019-03-11T15:11:13.312Z,3.30
2019-03-11T15:13:15.263Z,3.77
2019-03-11T15:15:17.349Z,2.63
2019-03-11T15:17:19.040Z,3.03
2019-03-11T15:19:21.668Z,2.90
2019-03-11T15:21:23.576Z,2.10
2019-03-11T15:23:25.502Z,2.17
2019-03-11T15:25:27.173Z,2.70
2019-03-11T15:27:28.857Z,2.10
2019-03-11T15:29:30.564Z,2.60
2019-03-11T15:31:32.300Z,1.47
2019-03-11T15:33:33.993Z,2.33
2019-03-11T15:35:35.661Z,2.93
2019-03-11T15:37:37.649Z,2.97
2019-03-11T15:39:39.608Z,2.30
2019-03-11T15:41:41.294Z,1.97
2019-03-11T15:43:42.977Z,2.07
2019-03-11T15:45:44.645Z,2.60
2019-03-11T15:47:46.328Z,2.23
2019-03-11T15:49:47.993Z,2.03
2019-03-11T15:51:49.673Z,2.33
2019-03-11T15:53:51.362Z,1.90
2019-03-11T15:55:53.038Z,2.27
2019-03-11T15:57:54.981Z,1.90
2019-03-11T15:59:56.654Z,1.77
2019-03-11T16:01:58.320Z,2.43
2019-03-11T16:04:00.076Z,2.63
2019-03-11T16:06:01.745Z,2.53
2019-03-11T16:08:03.436Z,2.90
2019-03-11T16:10:16.272Z,2.80
2019-03-11T16:12:10.303Z,2.73
2019-03-11T16:14:11.994Z,2.90
2019-03-11T16:16:13.657Z,2.10
2019-03-11T16:18:15.596Z,2.63
2019-03-11T16:20:17.317Z,2.60
2019-03-11T16:22:24.117Z,2.80
2019-03-11T16:24:22.805Z,2.70
2019-03-11T16:26:24.507Z,3.03
2019-03-11T16:28:28.034Z,3.90
2019-03-11T16:30:30.094Z,3.33
2019-03-11T16:32:31.768Z,4.10
2019-03-11T16:34:33.483Z,5.70
2019-03-11T16:36:35.234Z,14.63
2019-03-11T16:38:36.935Z,3.50
2019-03-11T16:40:38.613Z,9.80
2019-03-11T16:42:40.276Z,3.07
2019-03-11T16:44:41.956Z,3.03
2019-03-11T16:46:43.638Z,4.30
2019-03-11T16:48:45.316Z,3.60
2019-03-11T16:50:47.080Z,4.97
2019-03-11T16:52:49.110Z,4.80
2019-03-11T16:54:50.772Z,5.90
2019-03-11T16:56:52.450Z,5.23
2019-03-11T16:58:54.149Z,5.17
2019-03-11T17:00:58.052Z,4.60
2019-03-11T17:02:59.711Z,6.60
2019-03-11T17:05:01.385Z,7.43
2019-03-11T17:07:03.066Z,3.80
2019-03-11T17:09:05.329Z,3.80
2019-03-11T17:11:07.011Z,3.97
2019-03-11T17:13:08.682Z,2.00
2019-03-11T17:15:10.389Z,3.20
2019-03-11T17:17:12.055Z,4.83
2019-03-11T17:19:14.058Z,3.33
2019-03-11T17:21:15.733Z,3.30
2019-03-11T17:23:17.403Z,3.00
2019-03-11T17:25:19.099Z,2.17
2019-03-11T17:27:20.777Z,2.53
2019-03-11T17:29:22.721Z,2.30
2019-03-11T17:31:24.400Z,2.33
2019-03-11T17:33:26.082Z,3.50
2019-03-11T17:35:27.761Z,3.20
2019-03-11T17:37:29.705Z,2.93
2019-03-11T17:39:31.689Z,3.20
2019-03-11T17:41:33.373Z,3.20
2019-03-11T17:43:35.138Z,3.00
2019-03-11T17:45:37.373Z,2.40
2019-03-11T17:47:39.038Z,2.53
2019-03-11T17:49:40.982Z,3.17
2019-03-11T17:51:42.936Z,2.63
2019-03-11T17:53:44.893Z,3.47
2019-03-11T17:55:47.165Z,2.80
2019-03-11T17:57:48.853Z,3.50
2019-03-11T17:59:50.858Z,2.70
2019-03-11T18:01:52.843Z,4.00
2019-03-11T18:03:54.500Z,3.90
2019-03-11T18:05:57.200Z,3.50
2019-03-11T18:07:59.257Z,4.90
2019-03-11T18:10:00.941Z,4.70
2019-03-11T18:12:02.901Z,4.03
2019-03-11T18:14:04.573Z,4.90
2019-03-11T18:16:06.261Z,5.40
2019-03-11T18:18:07.926Z,5.10
2019-03-11T18:20:10.446Z,4.63
2019-03-11T18:22:12.134Z,4.50
2019-03-11T18:24:13.807Z,5.20
2019-03-11T18:26:15.496Z,4.60
2019-03-11T18:28:17.172Z,4.90
2019-03-11T18:30:19.242Z,5.50
2019-03-11T18:32:21.042Z,4.93
2019-03-11T18:34:23.049Z,5.73
2019-03-11T18:36:24.770Z,5.00
2019-03-11T18:38:26.770Z,5.73
2019-03-11T18:40:28.465Z,4.90
2019-03-11T18:42:30.150Z,5.60
2019-03-11T18:44:32.189Z,5.40
2019-03-11T18:46:34.863Z,5.00
2019-03-11T18:48:36.890Z,5.40
2019-03-11T18:50:38.655Z,5.77
2019-03-11T18:52:40.325Z,4.93
2019-03-11T18:54:41.993Z,5.27
2019-03-11T18:56:43.676Z,5.30
2019-03-11T18:58:45.382Z,4.93
2019-03-11T19:00:47.151Z,5.87
2019-03-11T19:02:48.901Z,5.40
2019-03-11T19:04:50.592Z,5.80
2019-03-11T19:06:52.700Z,5.10
2019-03-11T19:08:54.472Z,6.00
2019-03-11T19:10:56.224Z,5.87
2019-03-11T19:12:57.959Z,7.37
2019-03-11T19:14:59.664Z,6.20
2019-03-11T19:17:01.573Z,7.73
2019-03-11T19:19:03.604Z,7.00
2019-03-11T19:21:05.501Z,6.83
2019-03-11T19:23:07.197Z,6.03
2019-03-11T19:25:10.868Z,6.00
2019-03-11T19:27:12.863Z,5.27
2019-03-11T19:29:14.639Z,5.53
2019-03-11T19:31:16.376Z,5.20
2019-03-11T19:33:18.113Z,4.13
2019-03-11T19:35:20.212Z,3.90
2019-03-11T19:37:21.981Z,4.20
2019-03-11T19:39:24.003Z,3.77
2019-03-11T19:41:25.707Z,3.93
2019-03-11T19:43:29.312Z,3.90
2019-03-11T19:45:31.227Z,4.00
2019-03-11T19:47:32.991Z,3.93
2019-03-11T19:49:34.693Z,3.70
2019-03-11T19:51:36.456Z,4.60
2019-03-11T19:53:38.446Z,4.47
2019-03-11T19:55:40.542Z,5.00
2019-03-11T19:57:42.302Z,4.40
2019-03-11T19:59:44.441Z,4.80
2019-03-11T20:01:46.220Z,5.10
2019-03-11T20:03:48.006Z,5.03
2019-03-11T20:05:49.781Z,4.80
2019-03-11T20:07:51.580Z,5.00
2019-03-11T20:09:53.823Z,5.73
2019-03-11T20:11:55.590Z,5.77
2019-03-11T20:13:57.286Z,6.60
2019-03-11T20:15:59.048Z,6.00
2019-03-11T20:18:00.769Z,6.50
2019-03-11T20:20:02.805Z,7.67
2019-03-11T20:22:04.520Z,7.40
2019-03-11T20:24:06.710Z,7.20
2019-03-11T20:26:08.627Z,9.20
2019-03-11T20:28:10.538Z,8.87
2019-03-11T20:30:14.921Z,8.93
2019-03-11T20:32:16.787Z,8.70
2019-03-11T20:34:18.773Z,9.40
2019-03-11T20:36:21.475Z,8.13
2019-03-11T20:38:23.697Z,8.43
2019-03-11T20:40:25.668Z,9.27
2019-03-11T20:42:27.440Z,8.77
2019-03-11T20:44:29.176Z,8.50
2019-03-11T20:46:30.938Z,8.40
2019-03-11T20:48:32.696Z,6.93
2019-03-11T20:50:42.085Z,5.30
2019-03-11T20:52:38.040Z,5.40
2019-03-11T20:54:39.713Z,5.30
2019-03-11T20:56:41.381Z,5.03
2019-03-11T20:58:43.069Z,4.80
2019-03-11T21:00:44.917Z,4.97
2019-03-11T21:02:46.989Z,4.57
2019-03-11T21:04:48.693Z,4.83
2019-03-11T21:06:50.437Z,5.00
2019-03-11T21:08:52.197Z,4.80
2019-03-11T21:10:54.049Z,4.70
2019-03-11T21:12:55.813Z,4.70
2019-03-11T21:14:58.024Z,3.43
2019-03-11T21:16:59.803Z,4.60
2019-03-11T21:19:01.604Z,4.33
2019-03-11T21:21:05.159Z,5.00
2019-03-11T21:23:06.945Z,4.07
2019-03-11T21:25:10.813Z,3.80
2019-03-11T21:27:12.746Z,5.00
2019-03-11T21:29:14.486Z,4.50
2019-03-11T21:31:18.302Z,4.60
2019-03-11T21:33:20.150Z,3.50
2019-03-11T21:35:22.519Z,3.63
2019-03-11T21:37:24.435Z,3.97
2019-03-11T21:39:26.176Z,3.53
2019-03-11T21:41:28.079Z,3.73
2019-03-11T21:43:30.170Z,3.63
2019-03-11T21:45:34.597Z,4.30
2019-03-11T21:47:35.474Z,3.60
2019-03-11T21:49:37.267Z,4.50
2019-03-11T21:51:38.994Z,4.00
2019-03-11T21:53:40.783Z,4.27
2019-03-11T21:55:42.687Z,5.10
2019-03-11T21:57:44.465Z,4.83
2019-03-11T21:59:46.212Z,5.17
2019-03-11T22:01:48.303Z,4.50
2019-03-11T22:03:50.201Z,5.53
2019-03-11T22:05:51.876Z,4.30
2019-03-11T22:07:53.557Z,5.20
2019-03-11T22:09:55.242Z,5.00
2019-03-11T22:11:56.917Z,4.70
2019-03-11T22:13:58.596Z,4.03
2019-03-11T22:16:00.324Z,3.80
2019-03-11T22:18:02.040Z,4.27
2019-03-11T22:20:04.435Z,4.37
2019-03-11T22:22:06.201Z,4.00
2019-03-11T22:24:07.906Z,4.57
2019-03-11T22:26:09.586Z,3.63
2019-03-11T22:28:11.558Z,4.83
2019-03-11T22:30:15.130Z,4.23
2019-03-11T22:32:16.815Z,3.70
2019-03-11T22:34:18.506Z,3.87
2019-03-11T22:36:20.465Z,3.60
2019-03-11T22:38:22.132Z,4.17
2019-03-11T22:40:23.817Z,4.50
2019-03-11T22:42:25.504Z,4.10
2019-03-11T22:44:27.189Z,4.07
2019-03-11T22:46:28.861Z,3.70
2019-03-11T22:48:30.542Z,3.50
2019-03-11T22:50:32.522Z,4.00
2019-03-11T22:52:34.184Z,3.73
2019-03-11T22:54:36.135Z,4.10
2019-03-11T22:56:38.078Z,3.83
2019-03-11T22:58:39.751Z,3.00
2019-03-11T23:00:55.816Z,3.87
2019-03-11T23:02:57.488Z,4.03
2019-03-11T23:04:59.176Z,4.37
2019-03-11T23:07:00.849Z,3.00
2019-03-11T23:09:03.838Z,3.50
2019-03-11T23:11:05.524Z,3.00
2019-03-11T23:13:07.575Z,4.10
2019-03-11T23:15:09.258Z,3.47
2019-03-11T23:17:11.210Z,3.23
2019-03-11T23:19:12.857Z,4.10
2019-03-11T23:21:14.536Z,3.57
2019-03-11T23:23:16.202Z,4.40
2019-03-11T23:25:17.881Z,4.87
2019-03-11T23:27:19.555Z,5.60
2019-03-11T23:29:21.232Z,3.87
2019-03-11T23:31:23.005Z,4.33
2019-03-11T23:33:24.678Z,4.07
2019-03-11T23:35:26.365Z,4.67
2019-03-11T23:37:28.042Z,4.13
2019-03-11T23:39:29.705Z,3.33
2019-03-11T23:41:31.398Z,3.77
2019-03-11T23:43:33.067Z,4.37
2019-03-11T23:45:34.752Z,4.00
2019-03-11T23:47:36.421Z,4.50
2019-03-11T23:49:38.753Z,4.17
2019-03-11T23:51:40.438Z,4.90
2019-03-11T23:53:42.112Z,4.20
2019-03-11T23:55:44.124Z,3.40
2019-03-11T23:57:45.789Z,3.97
2019-03-11T23:59:47.462Z,4.50
